createdAt,value
2023-03-30T00:00:33.148Z,59.08
2023-03-30T00:03:16.833Z,59.06
2023-03-30T00:05:43.471Z,59.01
2023-03-30T00:08:09.807Z,59.68
2023-03-30T00:10:36.251Z,60.07
2023-03-30T00:13:02.672Z,59.49
2023-03-30T00:15:29.051Z,59.48
2023-03-30T00:17:55.567Z,59.37
2023-03-30T00:20:22.049Z,59.16
2023-03-30T00:22:48.776Z,59.15
2023-03-30T00:25:16.386Z,59.21
2023-03-30T00:27:43.248Z,59.95
2023-03-30T00:30:13.042Z,59.46
2023-03-30T00:32:39.679Z,59.55
2023-03-30T00:35:06.332Z,60.34
2023-03-30T00:37:32.904Z,60.08
2023-03-30T00:39:59.293Z,59.91
2023-03-30T00:42:25.672Z,59.81
2023-03-30T00:44:58.032Z,59.61
2023-03-30T00:47:24.955Z,59.62
2023-03-30T00:49:51.509Z,59.65
2023-03-30T00:52:18.632Z,59.52
2023-03-30T00:54:46.708Z,60.28
2023-03-30T00:57:13.573Z,60.30
2023-03-30T00:59:40.074Z,60.21
2023-03-30T01:02:06.582Z,60.19
2023-03-30T01:04:33.241Z,59.91
2023-03-30T01:07:00.124Z,60.71
2023-03-30T01:09:26.498Z,60.07
2023-03-30T01:11:52.885Z,59.97
2023-03-30T01:14:19.298Z,60.06
2023-03-30T01:17:00.978Z,60.23
2023-03-30T01:19:46.190Z,59.95
2023-03-30T01:22:18.618Z,60.07
2023-03-30T01:24:51.476Z,60.14
2023-03-30T01:27:17.730Z,60.40
2023-03-30T01:29:47.180Z,60.93
2023-03-30T01:32:17.355Z,61.02
2023-03-30T01:34:52.426Z,61.14
2023-03-30T01:37:28.350Z,61.42
2023-03-30T01:40:04.680Z,61.69
2023-03-30T01:42:37.068Z,61.81
2023-03-30T01:45:03.486Z,61.32
2023-03-30T01:47:30.082Z,61.53
2023-03-30T01:50:00.179Z,61.40
2023-03-30T01:52:43.220Z,61.20
2023-03-30T01:55:15.112Z,61.09
2023-03-30T01:57:45.320Z,61.14
2023-03-30T02:00:17.560Z,61.45
2023-03-30T02:02:52.839Z,61.24
2023-03-30T02:05:20.495Z,61.26
2023-03-30T02:07:49.671Z,61.71
2023-03-30T02:10:16.843Z,61.34
2023-03-30T02:12:44.333Z,61.42
2023-03-30T02:15:14.074Z,61.26
2023-03-30T02:17:40.767Z,61.23
2023-03-30T02:20:07.687Z,61.39
2023-03-30T02:22:34.174Z,61.15
2023-03-30T02:25:00.798Z,61.13
2023-03-30T02:27:27.454Z,61.18
2023-03-30T02:29:54.007Z,61.04
2023-03-30T02:32:25.909Z,60.96
2023-03-30T02:35:11.364Z,60.93
2023-03-30T02:37:44.171Z,60.84
2023-03-30T02:40:10.520Z,60.78
2023-03-30T02:42:36.822Z,60.81
2023-03-30T02:45:15.465Z,61.06
2023-03-30T02:48:01.009Z,61.06
2023-03-30T02:50:53.892Z,61.03
2023-03-30T02:53:44.338Z,61.16
2023-03-30T02:56:23.384Z,61.55
2023-03-30T02:59:00.638Z,61.49
2023-03-30T03:01:37.038Z,61.68
2023-03-30T03:04:14.659Z,61.71
2023-03-30T03:07:00.149Z,61.53
2023-03-30T03:09:26.852Z,61.50
2023-03-30T03:11:53.305Z,61.39
2023-03-30T03:14:20.077Z,61.36
2023-03-30T03:16:46.899Z,61.30
2023-03-30T03:19:14.614Z,61.37
2023-03-30T03:21:41.027Z,61.33
2023-03-30T03:24:07.806Z,61.26
2023-03-30T03:26:57.351Z,61.22
2023-03-30T03:29:28.260Z,61.26
2023-03-30T03:31:57.306Z,61.26
2023-03-30T03:34:25.908Z,61.24
2023-03-30T03:36:58.550Z,61.52
2023-03-30T03:39:27.092Z,61.44
2023-03-30T03:41:59.730Z,61.81
2023-03-30T03:44:26.058Z,61.90
2023-03-30T03:46:52.867Z,61.88
2023-03-30T03:49:19.365Z,61.62
2023-03-30T03:51:45.730Z,61.73
2023-03-30T03:54:12.269Z,62.25
2023-03-30T03:56:42.544Z,62.11
2023-03-30T03:59:09.051Z,61.95
2023-03-30T04:01:35.423Z,62.02
2023-03-30T04:04:01.909Z,61.93
2023-03-30T04:06:28.375Z,61.88
2023-03-30T04:08:54.740Z,61.89
2023-03-30T04:11:30.168Z,61.96
2023-03-30T04:14:15.705Z,61.88
2023-03-30T04:17:00.673Z,61.83
2023-03-30T04:19:49.981Z,61.79
2023-03-30T04:22:37.642Z,61.76
2023-03-30T04:25:04.498Z,61.80
2023-03-30T04:27:56.643Z,61.93
2023-03-30T04:30:56.121Z,62.01
2023-03-30T04:33:52.283Z,62.07
2023-03-30T04:36:36.995Z,62.49
2023-03-30T04:39:26.525Z,62.75
2023-03-30T04:42:04.924Z,62.70
2023-03-30T04:44:43.869Z,62.78
2023-03-30T04:47:33.945Z,62.75
2023-03-30T04:50:38.993Z,62.52
2023-03-30T04:53:25.678Z,62.42
2023-03-30T04:56:10.669Z,62.44
2023-03-30T04:58:55.791Z,62.51
2023-03-30T05:01:34.326Z,62.83
2023-03-30T05:04:27.072Z,63.02
2023-03-30T05:07:06.398Z,62.62
2023-03-30T05:10:05.433Z,62.12
2023-03-30T05:12:53.055Z,62.25
2023-03-30T05:15:52.139Z,63.12
2023-03-30T05:18:37.075Z,62.41
2023-03-30T05:21:17.350Z,62.06
2023-03-30T05:24:07.025Z,62.23
2023-03-30T05:26:52.449Z,62.47
2023-03-30T05:29:21.420Z,62.24
2023-03-30T05:31:57.041Z,62.32
2023-03-30T05:34:55.776Z,61.99
2023-03-30T05:37:49.841Z,62.19
2023-03-30T05:40:27.656Z,62.26
2023-03-30T05:43:20.556Z,62.10
2023-03-30T05:45:47.428Z,62.69
2023-03-30T05:48:34.057Z,62.51
2023-03-30T05:51:10.104Z,63.35
2023-03-30T05:53:46.746Z,62.57
2023-03-30T05:56:33.385Z,62.06
2023-03-30T05:59:18.766Z,62.54
2023-03-30T06:02:06.828Z,64.00
2023-03-30T06:04:34.882Z,62.90
2023-03-30T06:07:02.196Z,63.02
2023-03-30T06:09:30.950Z,62.65
2023-03-30T06:11:59.200Z,62.40
2023-03-30T06:14:25.599Z,62.36
2023-03-30T06:17:12.025Z,62.26
2023-03-30T06:19:39.004Z,62.19
2023-03-30T06:22:08.676Z,62.22
2023-03-30T06:25:05.008Z,62.56
2023-03-30T06:27:31.653Z,62.65
2023-03-30T06:29:58.606Z,62.19
2023-03-30T06:32:30.324Z,62.18
2023-03-30T06:35:25.816Z,62.46
2023-03-30T06:37:54.879Z,62.37
2023-03-30T06:40:21.454Z,61.72
2023-03-30T06:42:49.544Z,61.56
2023-03-30T06:45:34.457Z,61.62
2023-03-30T06:48:04.894Z,61.55
2023-03-30T06:50:32.127Z,61.41
2023-03-30T06:53:02.523Z,61.28
2023-03-30T06:55:33.850Z,61.55
2023-03-30T06:58:10.035Z,61.38
2023-03-30T07:00:56.679Z,61.35
2023-03-30T07:04:02.912Z,61.24
2023-03-30T07:06:51.761Z,60.85
2023-03-30T07:09:18.285Z,60.67
2023-03-30T07:11:44.695Z,60.56
2023-03-30T07:14:11.711Z,60.72
2023-03-30T07:16:38.588Z,61.00
2023-03-30T07:19:05.312Z,60.61
2023-03-30T07:21:32.078Z,60.61
2023-03-30T07:23:58.725Z,60.19
2023-03-30T07:26:33.189Z,60.11
2023-03-30T07:29:04.749Z,60.09
2023-03-30T07:31:31.476Z,59.82
2023-03-30T07:33:58.082Z,59.87
2023-03-30T07:36:25.669Z,59.58
2023-03-30T07:38:52.186Z,59.15
2023-03-30T07:41:19.062Z,58.94
2023-03-30T07:43:48.726Z,58.88
2023-03-30T07:46:15.798Z,58.89
2023-03-30T07:48:45.303Z,58.86
2023-03-30T07:51:12.763Z,58.67
2023-03-30T07:53:48.300Z,58.39
2023-03-30T07:56:21.226Z,58.03
2023-03-30T07:58:49.258Z,56.98
2023-03-30T08:01:16.710Z,57.01
2023-03-30T08:04:02.985Z,57.22
2023-03-30T08:06:30.665Z,56.17
2023-03-30T08:08:57.612Z,55.45
2023-03-30T08:11:24.982Z,55.25
2023-03-30T08:13:51.709Z,55.10
2023-03-30T08:16:18.343Z,55.16
2023-03-30T08:18:44.895Z,54.05
2023-03-30T08:21:11.994Z,54.04
2023-03-30T08:23:38.466Z,52.90
2023-03-30T08:26:05.332Z,52.57
2023-03-30T08:28:31.926Z,52.69
2023-03-30T08:31:08.288Z,52.99
2023-03-30T08:33:34.987Z,53.73
2023-03-30T08:36:01.644Z,53.79
2023-03-30T08:38:31.566Z,51.91
2023-03-30T08:40:58.302Z,52.08
2023-03-30T08:43:43.791Z,51.43
2023-03-30T08:46:12.741Z,51.94
2023-03-30T08:48:39.401Z,52.14
2023-03-30T08:51:18.429Z,51.09
2023-03-30T08:53:45.036Z,51.23
2023-03-30T08:56:29.897Z,51.23
2023-03-30T08:59:15.586Z,51.31
2023-03-30T09:01:42.586Z,51.14
2023-03-30T09:04:17.629Z,50.97
2023-03-30T09:06:47.004Z,50.29
2023-03-30T09:09:17.340Z,50.37
2023-03-30T09:11:44.713Z,49.38
2023-03-30T09:14:15.344Z,48.86
2023-03-30T09:16:56.041Z,49.46
2023-03-30T09:19:30.806Z,48.04
2023-03-30T09:22:05.049Z,46.91
2023-03-30T09:24:31.660Z,47.94
2023-03-30T09:27:01.778Z,47.45
2023-03-30T09:29:31.392Z,49.04
2023-03-30T09:32:17.082Z,48.65
2023-03-30T09:34:43.596Z,47.41
2023-03-30T09:37:11.764Z,47.71
2023-03-30T09:39:39.030Z,47.28
2023-03-30T09:42:25.802Z,47.64
2023-03-30T09:44:57.952Z,46.81
2023-03-30T09:47:26.325Z,46.85
2023-03-30T09:50:00.144Z,47.58
2023-03-30T09:52:30.075Z,48.25
2023-03-30T09:54:56.784Z,48.10
2023-03-30T09:57:25.578Z,48.45
2023-03-30T09:59:52.271Z,48.42
2023-03-30T10:02:19.928Z,49.19
2023-03-30T10:04:52.911Z,49.85
2023-03-30T10:07:21.340Z,49.66
2023-03-30T10:10:08.161Z,50.62
2023-03-30T10:12:35.058Z,50.76
2023-03-30T10:15:04.720Z,49.74
2023-03-30T10:17:31.938Z,47.30
2023-03-30T10:20:22.512Z,47.36
2023-03-30T10:22:56.315Z,46.89
2023-03-30T10:25:25.817Z,44.91
2023-03-30T10:27:54.782Z,44.97
2023-03-30T10:30:22.630Z,43.77
2023-03-30T10:32:50.132Z,42.89
2023-03-30T10:35:46.199Z,42.44
2023-03-30T10:38:15.406Z,41.76
2023-03-30T10:41:00.124Z,41.97
2023-03-30T10:43:29.458Z,42.15
2023-03-30T10:46:18.203Z,42.18
2023-03-30T10:49:05.140Z,42.20
2023-03-30T10:51:33.310Z,43.05
2023-03-30T10:54:02.845Z,42.78
2023-03-30T10:56:34.280Z,44.03
2023-03-30T10:59:01.075Z,44.03
2023-03-30T11:01:46.208Z,43.41
2023-03-30T11:04:23.788Z,42.84
2023-03-30T11:06:51.736Z,42.11
2023-03-30T11:09:20.892Z,41.62
2023-03-30T11:11:49.074Z,42.80
2023-03-30T11:14:20.761Z,42.67
2023-03-30T11:16:53.401Z,42.32
2023-03-30T11:19:23.462Z,41.83
2023-03-30T11:21:50.466Z,42.13
2023-03-30T11:24:16.997Z,40.13
2023-03-30T11:26:47.378Z,39.81
2023-03-30T11:29:29.117Z,37.83
2023-03-30T11:31:58.622Z,37.05
2023-03-30T11:34:48.076Z,39.03
2023-03-30T11:37:22.338Z,36.23
2023-03-30T11:39:56.218Z,35.35
2023-03-30T11:42:26.175Z,34.87
2023-03-30T11:44:55.964Z,34.91
2023-03-30T11:47:57.888Z,35.95
2023-03-30T11:50:35.416Z,37.49
2023-03-30T11:53:38.314Z,38.93
2023-03-30T11:56:13.857Z,40.56
2023-03-30T11:58:40.468Z,42.00
2023-03-30T12:01:13.083Z,42.43
2023-03-30T12:03:52.700Z,43.50
2023-03-30T12:06:31.406Z,43.49
2023-03-30T12:09:17.930Z,43.79
2023-03-30T12:11:53.107Z,44.23
2023-03-30T12:14:31.894Z,44.60
2023-03-30T12:17:05.777Z,45.40
2023-03-30T12:19:55.573Z,45.59
2023-03-30T12:22:55.702Z,45.68
2023-03-30T12:25:27.963Z,45.53
2023-03-30T12:28:08.810Z,45.84
2023-03-30T12:30:54.512Z,45.92
2023-03-30T12:33:34.926Z,45.76
2023-03-30T12:36:20.985Z,45.62
2023-03-30T12:38:48.855Z,45.80
2023-03-30T12:41:21.102Z,46.05
2023-03-30T12:43:47.439Z,46.14
2023-03-30T12:46:19.472Z,46.04
2023-03-30T12:49:02.996Z,46.28
2023-03-30T12:51:49.415Z,46.48
2023-03-30T12:54:18.812Z,46.40
2023-03-30T12:57:03.147Z,46.74
2023-03-30T12:59:32.561Z,46.60
2023-03-30T13:02:18.304Z,47.07
2023-03-30T13:04:46.461Z,47.45
2023-03-30T13:07:19.308Z,47.39
2023-03-30T13:09:56.253Z,48.47
2023-03-30T13:12:37.437Z,47.61
2023-03-30T13:15:12.993Z,47.97
2023-03-30T13:17:57.319Z,49.28
2023-03-30T13:20:33.566Z,50.78
2023-03-30T13:23:20.539Z,49.60
2023-03-30T13:26:06.225Z,49.92
2023-03-30T13:28:44.979Z,52.71
2023-03-30T13:31:27.964Z,52.79
2023-03-30T13:34:04.774Z,52.42
2023-03-30T13:36:34.167Z,53.67
2023-03-30T13:39:08.119Z,53.72
2023-03-30T13:41:41.042Z,53.41
2023-03-30T13:44:30.403Z,53.55
2023-03-30T13:47:12.244Z,54.15
2023-03-30T13:49:44.899Z,54.20
2023-03-30T13:52:13.832Z,54.13
2023-03-30T13:54:59.899Z,54.11
2023-03-30T13:57:38.460Z,54.88
2023-03-30T14:00:20.398Z,54.73
2023-03-30T14:02:52.695Z,54.55
2023-03-30T14:05:22.321Z,54.81
2023-03-30T14:07:49.224Z,54.53
2023-03-30T14:10:17.440Z,54.74
2023-03-30T14:12:45.159Z,54.89
2023-03-30T14:15:25.348Z,55.70
2023-03-30T14:17:56.553Z,55.68
2023-03-30T14:20:43.437Z,56.02
2023-03-30T14:23:19.216Z,56.45
2023-03-30T14:25:45.758Z,56.48
2023-03-30T14:28:13.563Z,57.21
2023-03-30T14:30:47.878Z,57.60
2023-03-30T14:33:14.577Z,57.31
2023-03-30T14:35:42.886Z,57.34
2023-03-30T14:38:41.744Z,57.41
2023-03-30T14:41:14.791Z,57.62
2023-03-30T14:43:42.380Z,57.37
2023-03-30T14:46:11.026Z,56.82
2023-03-30T14:48:39.802Z,56.96
2023-03-30T14:51:26.696Z,56.99
2023-03-30T14:53:54.103Z,57.66
2023-03-30T14:56:21.734Z,57.82
2023-03-30T14:58:50.272Z,58.12
2023-03-30T15:01:19.043Z,58.56
2023-03-30T15:03:46.472Z,59.09
2023-03-30T15:06:15.146Z,58.42
2023-03-30T15:08:45.071Z,58.74
2023-03-30T15:11:13.440Z,59.17
2023-03-30T15:13:42.592Z,59.53
2023-03-30T15:16:13.675Z,59.82
2023-03-30T15:18:40.102Z,59.66
2023-03-30T15:21:08.940Z,60.59
2023-03-30T15:23:37.646Z,60.47
2023-03-30T15:26:05.330Z,61.72
2023-03-30T15:28:40.029Z,62.16
2023-03-30T15:31:09.908Z,63.03
2023-03-30T15:33:40.304Z,64.24
2023-03-30T15:36:11.866Z,63.71
2023-03-30T15:38:49.419Z,64.04
2023-03-30T15:41:16.778Z,64.72
2023-03-30T15:43:56.527Z,65.02
2023-03-30T15:46:23.732Z,65.68
2023-03-30T15:48:51.809Z,67.44
2023-03-30T15:51:24.281Z,66.29
2023-03-30T15:53:57.318Z,66.84
2023-03-30T15:56:36.792Z,67.64
2023-03-30T15:59:03.704Z,67.68
2023-03-30T16:01:42.130Z,67.51
2023-03-30T16:04:12.624Z,68.36
2023-03-30T16:06:42.106Z,69.17
2023-03-30T16:09:09.553Z,68.54
2023-03-30T16:11:36.560Z,68.37
2023-03-30T16:14:09.794Z,69.18
2023-03-30T16:16:36.430Z,69.82
2023-03-30T16:19:02.770Z,70.01
2023-03-30T16:21:29.380Z,70.34
2023-03-30T16:23:55.758Z,69.86
2023-03-30T16:26:25.477Z,69.04
2023-03-30T16:28:53.143Z,70.51
2023-03-30T16:31:21.489Z,72.00
2023-03-30T16:33:48.532Z,71.28
2023-03-30T16:36:16.510Z,72.26
2023-03-30T16:38:43.461Z,71.53
2023-03-30T16:41:14.795Z,72.13
2023-03-30T16:43:41.679Z,71.15
2023-03-30T16:46:09.588Z,72.31
2023-03-30T16:48:36.390Z,72.04
2023-03-30T16:51:03.152Z,71.92
2023-03-30T16:53:29.836Z,71.79
2023-03-30T16:55:56.778Z,71.62
2023-03-30T16:58:23.257Z,71.36
2023-03-30T17:00:50.738Z,72.04
2023-03-30T17:03:17.995Z,72.40
2023-03-30T17:05:44.797Z,72.99
2023-03-30T17:08:20.542Z,73.10
2023-03-30T17:10:47.423Z,73.67
2023-03-30T17:13:14.479Z,73.41
2023-03-30T17:15:41.199Z,73.40
2023-03-30T17:18:16.126Z,73.31
2023-03-30T17:20:47.015Z,73.69
2023-03-30T17:23:14.118Z,73.77
2023-03-30T17:25:40.650Z,73.86
2023-03-30T17:28:07.161Z,74.53
2023-03-30T17:30:35.523Z,74.00
2023-03-30T17:33:02.297Z,73.91
2023-03-30T17:35:29.164Z,74.10
2023-03-30T17:37:55.878Z,74.50
2023-03-30T17:40:27.165Z,74.73
2023-03-30T17:42:53.986Z,74.94
2023-03-30T17:45:22.459Z,75.40
2023-03-30T17:47:49.008Z,75.92
2023-03-30T17:50:21.916Z,76.92
2023-03-30T17:52:49.366Z,78.07
2023-03-30T17:55:16.991Z,77.90
2023-03-30T17:57:43.675Z,77.79
2023-03-30T18:00:16.532Z,77.83
2023-03-30T18:02:51.374Z,78.69
2023-03-30T18:05:18.959Z,80.16
2023-03-30T18:07:45.842Z,78.73
2023-03-30T18:10:17.109Z,78.47
2023-03-30T18:13:02.606Z,79.30
2023-03-30T18:15:43.323Z,78.76
2023-03-30T18:18:14.343Z,78.29
2023-03-30T18:20:46.699Z,79.87
2023-03-30T18:23:41.140Z,78.51
2023-03-30T18:26:11.849Z,78.16
2023-03-30T18:28:43.201Z,79.15
2023-03-30T18:31:14.107Z,78.39
2023-03-30T18:33:53.654Z,78.71
2023-03-30T18:36:41.383Z,79.22
2023-03-30T18:39:16.332Z,78.55
2023-03-30T18:41:42.846Z,78.48
2023-03-30T18:44:09.303Z,78.76
2023-03-30T18:46:46.411Z,78.61
2023-03-30T18:49:13.431Z,79.13
2023-03-30T18:51:39.922Z,79.17
2023-03-30T18:54:16.970Z,78.70
2023-03-30T18:56:43.592Z,78.54
2023-03-30T18:59:10.506Z,78.58
2023-03-30T19:01:46.138Z,78.51
2023-03-30T19:04:12.998Z,78.65
2023-03-30T19:06:39.450Z,80.31
2023-03-30T19:09:07.621Z,80.11
2023-03-30T19:11:34.513Z,79.47
2023-03-30T19:14:00.898Z,79.11
2023-03-30T19:16:27.775Z,79.11
2023-03-30T19:19:00.209Z,79.13
2023-03-30T19:21:26.988Z,79.00
2023-03-30T19:23:53.987Z,79.05
2023-03-30T19:26:20.604Z,78.94
2023-03-30T19:28:47.238Z,79.64
2023-03-30T19:31:14.048Z,79.61
2023-03-30T19:33:41.875Z,79.16
2023-03-30T19:36:09.617Z,79.04
2023-03-30T19:38:36.491Z,79.19
2023-03-30T19:41:04.126Z,79.48
2023-03-30T19:43:30.774Z,79.55
2023-03-30T19:45:57.621Z,79.66
2023-03-30T19:48:24.699Z,79.39
2023-03-30T19:50:51.190Z,79.44
2023-03-30T19:53:17.816Z,79.43
2023-03-30T19:55:44.503Z,80.78
2023-03-30T19:58:11.276Z,80.47
2023-03-30T20:00:37.955Z,80.30
2023-03-30T20:03:04.961Z,80.29
2023-03-30T20:05:37.119Z,80.38
2023-03-30T20:08:13.387Z,80.41
2023-03-30T20:10:47.798Z,80.36
2023-03-30T20:13:14.779Z,80.35
2023-03-30T20:15:41.267Z,82.27
2023-03-30T20:18:08.026Z,81.89
2023-03-30T20:20:34.795Z,81.64
2023-03-30T20:23:01.312Z,81.40
2023-03-30T20:25:27.928Z,81.41
2023-03-30T20:27:54.623Z,82.29
2023-03-30T20:30:21.023Z,81.33
2023-03-30T20:32:59.719Z,81.13
2023-03-30T20:35:36.727Z,81.19
2023-03-30T20:38:03.925Z,81.10
2023-03-30T20:40:31.083Z,81.15
2023-03-30T20:42:57.603Z,81.30
2023-03-30T20:45:24.254Z,81.51
2023-03-30T20:47:50.780Z,81.20
2023-03-30T20:50:17.502Z,81.18
2023-03-30T20:52:44.322Z,81.37
2023-03-30T20:55:10.735Z,81.41
2023-03-30T20:57:37.364Z,81.57
2023-03-30T21:00:04.986Z,83.07
2023-03-30T21:02:31.898Z,81.60
2023-03-30T21:05:01.732Z,82.26
2023-03-30T21:07:28.298Z,81.73
2023-03-30T21:09:54.676Z,81.55
2023-03-30T21:12:23.340Z,83.73
2023-03-30T21:14:49.852Z,82.15
2023-03-30T21:17:16.212Z,81.41
2023-03-30T21:19:42.585Z,81.37
2023-03-30T21:22:09.099Z,81.54
2023-03-30T21:24:35.707Z,81.31
2023-03-30T21:27:02.215Z,81.35
2023-03-30T21:29:28.682Z,81.72
2023-03-30T21:31:55.107Z,82.05
2023-03-30T21:34:21.585Z,82.87
2023-03-30T21:36:48.579Z,82.87
2023-03-30T21:39:15.125Z,83.36
2023-03-30T21:41:41.566Z,82.38
2023-03-30T21:44:07.955Z,82.49
2023-03-30T21:46:34.536Z,82.61
2023-03-30T21:49:01.218Z,82.32
2023-03-30T21:51:28.552Z,83.00
2023-03-30T21:53:55.802Z,82.87
2023-03-30T21:56:23.588Z,82.71
2023-03-30T21:58:50.501Z,82.33
2023-03-30T22:01:18.101Z,82.72
2023-03-30T22:03:44.922Z,82.84
2023-03-30T22:06:13.468Z,82.65
2023-03-30T22:08:40.425Z,82.36
2023-03-30T22:11:17.480Z,82.22
2023-03-30T22:13:46.171Z,82.12
2023-03-30T22:16:16.517Z,82.08
2023-03-30T22:18:43.820Z,82.03
2023-03-30T22:21:30.407Z,83.11
2023-03-30T22:24:03.443Z,82.25
2023-03-30T22:26:30.114Z,82.37
2023-03-30T22:28:59.811Z,82.87
2023-03-30T22:31:29.523Z,82.39
2023-03-30T22:33:56.169Z,82.41
2023-03-30T22:36:24.088Z,82.41
2023-03-30T22:38:51.146Z,82.49
2023-03-30T22:41:18.195Z,82.55
2023-03-30T22:43:44.803Z,82.41
2023-03-30T22:46:11.372Z,82.40
2023-03-30T22:48:38.082Z,82.67
2023-03-30T22:51:04.745Z,82.81
2023-03-30T22:53:31.296Z,82.36
2023-03-30T22:55:57.869Z,82.22
2023-03-30T22:58:24.367Z,82.12
2023-03-30T23:00:50.833Z,81.99
2023-03-30T23:03:19.472Z,82.29
2023-03-30T23:05:49.919Z,82.37
2023-03-30T23:08:16.557Z,81.85
2023-03-30T23:10:45.839Z,81.75
2023-03-30T23:13:12.322Z,81.58
2023-03-30T23:15:38.817Z,81.40
2023-03-30T23:18:05.357Z,81.59
2023-03-30T23:20:31.760Z,81.57
2023-03-30T23:22:58.146Z,81.47
2023-03-30T23:25:24.599Z,81.54
2023-03-30T23:27:51.050Z,81.56
2023-03-30T23:30:17.567Z,81.46
2023-03-30T23:32:44.063Z,81.28
2023-03-30T23:35:13.693Z,81.30
2023-03-30T23:37:40.196Z,81.15
2023-03-30T23:40:06.891Z,81.14
2023-03-30T23:42:33.217Z,81.26
2023-03-30T23:45:01.833Z,81.36
2023-03-30T23:47:28.267Z,81.45
2023-03-30T23:49:54.782Z,81.41
2023-03-30T23:52:21.149Z,82.09
2023-03-30T23:54:47.493Z,81.59
2023-03-30T23:57:13.935Z,81.33
2023-03-30T23:59:40.444Z,81.80
